createdAt,value
2023-05-08T00:00:18.417Z,152048.22
2023-05-08T00:02:51.140Z,152033.91
2023-05-08T00:05:19.285Z,152022.22
2023-05-08T00:07:47.515Z,152022.22
2023-05-08T00:10:17.478Z,152013.19
2023-05-08T00:12:47.799Z,152013.19
2023-05-08T00:15:16.826Z,152018.38
2023-05-08T00:17:44.937Z,152009.28
2023-05-08T00:20:14.152Z,152000.19
2023-05-08T00:22:42.831Z,151983.31
2023-05-08T00:25:12.232Z,151993.72
2023-05-08T00:27:40.708Z,151996.31
2023-05-08T00:30:11.957Z,152001.50
2023-05-08T00:32:40.710Z,151982.03
2023-05-08T00:35:10.042Z,151989.81
2023-05-08T00:37:40.902Z,151995.00
2023-05-08T00:40:10.733Z,151998.91
2023-05-08T00:42:39.782Z,151997.59
2023-05-08T00:45:08.927Z,151997.59
2023-05-08T00:47:39.995Z,151985.91
2023-05-08T00:50:09.054Z,151972.94
2023-05-08T00:52:36.901Z,151961.31
2023-05-08T00:55:06.362Z,151963.91
2023-05-08T00:57:35.776Z,151961.31
2023-05-08T01:00:05.781Z,151939.25
2023-05-08T01:02:34.010Z,151913.28
2023-05-08T01:05:04.492Z,151892.56
2023-05-08T01:07:33.342Z,151892.56
2023-05-08T01:10:01.301Z,151882.19
2023-05-08T01:12:41.333Z,151862.72
2023-05-08T01:15:16.923Z,151864.00
2023-05-08T01:18:08.789Z,151835.53
2023-05-08T01:20:46.211Z,151821.25
2023-05-08T01:23:45.243Z,151808.28
2023-05-08T01:26:43.862Z,151786.28
2023-05-08T01:29:45.167Z,151769.41
2023-05-08T01:32:18.439Z,151769.41
2023-05-08T01:34:54.540Z,151759.03
2023-05-08T01:37:31.110Z,151739.63
2023-05-08T01:40:11.504Z,151718.88
2023-05-08T01:42:55.074Z,151703.31
2023-05-08T01:45:28.336Z,151672.22
2023-05-08T01:48:05.163Z,151657.97
2023-05-08T01:50:40.050Z,151677.41
2023-05-08T01:53:13.821Z,151619.06
2023-05-08T01:55:44.931Z,151604.78
2023-05-08T01:58:14.728Z,151589.25
2023-05-08T02:00:44.870Z,151590.53
2023-05-08T02:03:16.939Z,151607.41
2023-05-08T02:05:46.145Z,151622.94
2023-05-08T02:08:16.114Z,151638.50
2023-05-08T02:10:46.208Z,151599.63
2023-05-08T02:13:19.155Z,151586.66
2023-05-08T02:15:49.481Z,151581.47
2023-05-08T02:18:21.272Z,151571.13
2023-05-08T02:20:52.070Z,151520.63
2023-05-08T02:23:21.771Z,151551.69
2023-05-08T02:25:52.107Z,151573.72
2023-05-08T02:28:21.569Z,151559.47
2023-05-08T02:30:51.047Z,151555.59
2023-05-08T02:33:21.281Z,151571.13
2023-05-08T02:35:51.639Z,151532.25
2023-05-08T02:38:22.649Z,151541.31
2023-05-08T02:40:54.697Z,151507.66
2023-05-08T02:43:23.997Z,151480.44
2023-05-08T02:46:07.629Z,151483.03
2023-05-08T02:48:40.751Z,151492.13
2023-05-08T02:51:19.684Z,151467.53
2023-05-08T02:53:52.567Z,151521.94
2023-05-08T02:56:32.201Z,151537.44
2023-05-08T02:59:11.322Z,151514.16
2023-05-08T03:01:45.575Z,151483.03
2023-05-08T03:04:25.204Z,151462.34
2023-05-08T03:06:56.476Z,151455.88
2023-05-08T03:09:27.984Z,151418.31
2023-05-08T03:12:04.851Z,151454.59
2023-05-08T03:14:41.615Z,151453.28
2023-05-08T03:17:17.381Z,151472.69
2023-05-08T03:19:56.237Z,151431.25
2023-05-08T03:22:26.724Z,151455.88
2023-05-08T03:25:14.090Z,151450.69
2023-05-08T03:27:43.047Z,151462.34
2023-05-08T03:30:55.252Z,151472.69
2023-05-08T03:33:25.429Z,151467.53
2023-05-08T03:35:57.520Z,151423.47
2023-05-08T03:38:26.033Z,151475.25
2023-05-08T03:40:54.637Z,151417.00
2023-05-08T03:43:30.528Z,151392.44
2023-05-08T03:45:59.224Z,151362.63
2023-05-08T03:48:28.584Z,151391.13
2023-05-08T03:50:59.994Z,151397.63
2023-05-08T03:53:28.730Z,151379.47
2023-05-08T03:55:59.014Z,151369.13
2023-05-08T03:58:33.850Z,151371.72
2023-05-08T04:01:08.913Z,151382.06
2023-05-08T04:03:57.100Z,151339.38
2023-05-08T04:06:42.124Z,151351.03
2023-05-08T04:09:28.132Z,151351.03
2023-05-08T04:12:03.407Z,151334.19
2023-05-08T04:14:36.552Z,151366.53
2023-05-08T04:17:10.997Z,151387.25
2023-05-08T04:19:44.434Z,151389.84
2023-05-08T04:22:14.179Z,151392.44
2023-05-08T04:24:46.635Z,151384.66
2023-05-08T04:27:15.499Z,151389.84
2023-05-08T04:29:44.234Z,151401.50
2023-05-08T04:32:13.503Z,151411.88
2023-05-08T04:34:42.193Z,151433.84
2023-05-08T04:37:10.257Z,151432.56
2023-05-08T04:39:40.945Z,151423.47
2023-05-08T04:42:09.916Z,151433.84
2023-05-08T04:44:39.218Z,151457.19
2023-05-08T04:47:08.136Z,151453.28
2023-05-08T04:49:37.514Z,151472.69
2023-05-08T04:52:06.519Z,151463.66
2023-05-08T04:54:34.972Z,151450.69
2023-05-08T04:57:04.466Z,151485.63
2023-05-08T04:59:32.973Z,151506.38
2023-05-08T05:02:06.051Z,151523.22
2023-05-08T05:04:34.438Z,151529.66
2023-05-08T05:07:03.596Z,151551.69
2023-05-08T05:09:34.924Z,151578.88
2023-05-08T05:12:04.229Z,151585.34
2023-05-08T05:14:33.439Z,151615.16
2023-05-08T05:17:01.377Z,151633.31
2023-05-08T05:19:29.662Z,151643.69
2023-05-08T05:21:58.188Z,151651.47
2023-05-08T05:24:28.094Z,151685.19
2023-05-08T05:26:55.964Z,151716.28
2023-05-08T05:29:25.616Z,151743.50
2023-05-08T05:31:53.687Z,151755.13
2023-05-08T05:34:22.222Z,151791.47
2023-05-08T05:36:50.143Z,151806.97
2023-05-08T05:39:18.250Z,151851.09
2023-05-08T05:41:48.841Z,151861.41
2023-05-08T05:44:16.924Z,151931.44
2023-05-08T05:46:46.438Z,151972.94
2023-05-08T05:49:14.686Z,152013.19
2023-05-08T05:51:42.991Z,152053.44
2023-05-08T05:54:15.335Z,152063.81
2023-05-08T05:56:43.479Z,152128.69
2023-05-08T05:59:11.531Z,152131.28
2023-05-08T06:01:39.660Z,152153.31
2023-05-08T06:04:11.597Z,152263.63
2023-05-08T06:06:39.438Z,152335.06
2023-05-08T06:09:10.439Z,152414.28
2023-05-08T06:11:38.729Z,152584.47
2023-05-08T06:14:06.828Z,152611.78
2023-05-08T06:16:35.641Z,152602.69
2023-05-08T06:19:03.690Z,152668.97
2023-05-08T06:21:34.555Z,152692.31
2023-05-08T06:24:02.536Z,152832.81
2023-05-08T06:26:30.807Z,152880.91
2023-05-08T06:28:58.844Z,152965.44
2023-05-08T06:31:27.357Z,152973.25
2023-05-08T06:33:56.437Z,152936.84
2023-05-08T06:36:27.084Z,153165.91
2023-05-08T06:38:59.006Z,153162.00
2023-05-08T06:41:27.602Z,153257.03
2023-05-08T06:43:55.607Z,153418.56
2023-05-08T06:46:23.528Z,153447.25
2023-05-08T06:48:51.534Z,153481.09
2023-05-08T06:51:23.293Z,153366.47
2023-05-08T06:53:51.415Z,153607.56
2023-05-08T06:56:21.172Z,153531.91
2023-05-08T06:59:04.545Z,139447.00
2023-05-08T07:01:38.385Z,63130.22
2023-05-08T07:04:06.755Z,62682.72
2023-05-08T07:06:36.906Z,63308.22
2023-05-08T07:09:05.292Z,80358.31
2023-05-08T07:11:34.732Z,72189.59
2023-05-08T07:14:05.115Z,78246.75
2023-05-08T07:16:34.622Z,70377.16
2023-05-08T07:19:03.262Z,62902.38
2023-05-08T07:21:31.899Z,67961.84
2023-05-08T07:23:59.818Z,73014.03
2023-05-08T07:26:28.455Z,82257.50
2023-05-08T07:28:57.690Z,99323.81
2023-05-08T07:31:29.861Z,107148.19
2023-05-08T07:33:58.853Z,92487.59
2023-05-08T07:36:26.605Z,107534.72
2023-05-08T07:38:54.611Z,127095.25
2023-05-08T07:41:22.562Z,145632.28
2023-05-08T07:43:50.727Z,140978.06
2023-05-08T07:46:20.885Z,153078.69
2023-05-08T07:48:48.924Z,153072.22
2023-05-08T07:51:17.200Z,152999.31
2023-05-08T07:53:45.330Z,153027.94
2023-05-08T07:56:13.364Z,153168.53
2023-05-08T07:58:54.704Z,153180.25
2023-05-08T08:01:35.520Z,153352.19
2023-05-08T08:04:23.610Z,153399.06
2023-05-08T08:07:03.166Z,153285.69
2023-05-08T08:09:31.273Z,153324.81
2023-05-08T08:12:53.767Z,153568.47
2023-05-08T08:15:39.844Z,153445.94
2023-05-08T08:18:31.178Z,153524.09
2023-05-08T08:20:59.050Z,153534.53
2023-05-08T08:23:27.389Z,153567.16
2023-05-08T08:25:55.194Z,153595.81
2023-05-08T08:28:23.378Z,153704.00
2023-05-08T08:30:52.346Z,154035.41
2023-05-08T08:33:20.586Z,154510.84
2023-05-08T08:35:51.211Z,154386.66
2023-05-08T08:38:19.079Z,154654.56
2023-05-08T08:40:46.978Z,154799.78
2023-05-08T08:43:14.846Z,154654.56
2023-05-08T08:45:42.885Z,154972.44
2023-05-08T08:48:12.625Z,154469.00
2023-05-08T08:50:45.004Z,154595.75
2023-05-08T08:53:22.483Z,154378.81
2023-05-08T08:55:59.524Z,154175.09
2023-05-08T08:58:36.549Z,154227.31
2023-05-08T09:01:08.882Z,154359.22
2023-05-08T09:03:37.338Z,154245.53
2023-05-08T09:06:06.273Z,154334.44
2023-05-08T09:08:36.306Z,154368.38
2023-05-08T09:11:05.013Z,154662.44
2023-05-08T09:13:33.455Z,154786.69
2023-05-08T09:16:02.031Z,154861.19
2023-05-08T09:18:33.782Z,154717.38
2023-05-08T09:21:04.719Z,154603.59
2023-05-08T09:23:43.755Z,154318.75
2023-05-08T09:26:42.265Z,154650.66
2023-05-08T09:29:17.923Z,154733.09
2023-05-08T09:31:47.493Z,154771.00
2023-05-08T09:34:31.910Z,154927.97
2023-05-08T09:37:14.187Z,154917.50
2023-05-08T09:42:46.161Z,155028.69
2023-05-08T09:45:32.658Z,155108.59
2023-05-08T09:48:09.168Z,155036.56
2023-05-08T09:53:07.449Z,155314.16
2023-05-08T09:55:52.063Z,155375.72
2023-05-08T09:58:23.839Z,155388.81
2023-05-08T10:00:52.483Z,155593.22
2023-05-08T10:03:20.878Z,155542.13
2023-05-08T10:05:48.959Z,155526.44
2023-05-08T10:08:21.581Z,155400.63
2023-05-08T10:10:51.211Z,155695.50
2023-05-08T10:13:19.271Z,155835.84
2023-05-08T10:15:55.702Z,155864.66
2023-05-08T10:18:30.264Z,155725.66
2023-05-08T10:21:02.464Z,155470.09
2023-05-08T10:23:30.713Z,155539.50
2023-05-08T10:26:08.189Z,155426.84
2023-05-08T10:28:43.742Z,155430.78
2023-05-08T10:31:19.175Z,155532.94
2023-05-08T10:33:51.546Z,155362.63
2023-05-08T10:36:21.645Z,155540.81
2023-05-08T10:38:51.452Z,155605.09
2023-05-08T10:41:21.524Z,155867.28
2023-05-08T10:43:51.209Z,155810.91
2023-05-08T10:46:23.848Z,155780.78
2023-05-08T10:49:00.300Z,155671.94
2023-05-08T10:51:39.443Z,155887.00
2023-05-08T10:54:14.998Z,155685.06
2023-05-08T10:56:45.276Z,155858.16
2023-05-08T10:59:20.270Z,155717.78
2023-05-08T11:01:52.786Z,155692.94
2023-05-08T11:04:24.936Z,155658.81
2023-05-08T11:06:54.201Z,155824.03
2023-05-08T11:09:23.798Z,155827.97
2023-05-08T11:12:25.119Z,155860.78
2023-05-08T11:15:01.528Z,155869.91
2023-05-08T11:17:31.920Z,156212.44
2023-05-08T11:20:01.663Z,155897.50
2023-05-08T11:22:32.648Z,156086.41
2023-05-08T11:25:08.685Z,156272.88
2023-05-08T11:27:40.504Z,156253.16
2023-05-08T11:30:36.361Z,156230.81
2023-05-08T11:33:18.449Z,156023.47
2023-05-08T11:35:50.047Z,155563.13
2023-05-08T11:38:20.245Z,155842.41
2023-05-08T11:40:58.085Z,156033.91
2023-05-08T11:43:53.833Z,156099.53
2023-05-08T11:46:22.868Z,156114.03
2023-05-08T11:49:00.223Z,156162.56
2023-05-08T11:51:32.520Z,155775.53
2023-05-08T11:54:01.181Z,155820.09
2023-05-08T11:56:29.784Z,155590.59
2023-05-08T11:59:11.060Z,155501.53
2023-05-08T12:01:46.416Z,155234.28
2023-05-08T12:04:21.912Z,155158.34
2023-05-08T12:06:53.826Z,155742.72
2023-05-08T12:09:21.922Z,155908.00
2023-05-08T12:11:58.524Z,155967.06
2023-05-08T12:14:27.893Z,155758.41
2023-05-08T12:16:55.885Z,155824.03
2023-05-08T12:19:26.146Z,155580.16
2023-05-08T12:21:57.768Z,155892.25
2023-05-08T12:24:26.815Z,155699.44
2023-05-08T12:26:56.264Z,155776.84
2023-05-08T12:29:27.020Z,155692.94
2023-05-08T12:31:57.655Z,155939.44
2023-05-08T12:34:25.691Z,156351.66
2023-05-08T12:37:03.441Z,156538.13
2023-05-08T12:39:36.801Z,156039.16
2023-05-08T12:42:04.922Z,155795.22
2023-05-08T12:44:32.825Z,155500.22
2023-05-08T12:47:03.221Z,155544.75
2023-05-08T12:49:32.714Z,155605.09
2023-05-08T12:52:07.677Z,155753.16
2023-05-08T12:54:54.638Z,155730.91
2023-05-08T12:57:23.854Z,155517.25
2023-05-08T13:00:07.820Z,156276.81
2023-05-08T13:03:04.480Z,156879.94
2023-05-08T13:05:51.477Z,156534.25
2023-05-08T13:08:19.414Z,156573.63
2023-05-08T13:14:36.470Z,156528.97
2023-05-08T13:17:07.381Z,156561.81
2023-05-08T13:19:41.091Z,156698.50
2023-05-08T13:22:09.139Z,156482.97
2023-05-08T13:24:38.144Z,156678.78
2023-05-08T13:27:07.690Z,156787.91
2023-05-08T13:29:35.650Z,156764.22
2023-05-08T13:32:05.818Z,156439.66
2023-05-08T13:34:36.052Z,156052.31
2023-05-08T13:37:08.767Z,155734.84
2023-05-08T13:39:37.873Z,155647.00
2023-05-08T13:42:05.947Z,155745.34
2023-05-08T13:44:33.907Z,155877.78
2023-05-08T13:47:02.294Z,155890.91
2023-05-08T13:49:32.610Z,156096.91
2023-05-08T13:52:01.113Z,156070.69
2023-05-08T13:54:30.811Z,156073.31
2023-05-08T13:56:58.948Z,155908.00
2023-05-08T13:59:27.032Z,155968.38
2023-05-08T14:01:55.213Z,156272.88
2023-05-08T14:04:23.282Z,156523.72
2023-05-08T14:06:52.909Z,156442.28
2023-05-08T14:09:21.595Z,156335.88
2023-05-08T14:11:51.009Z,156593.34
2023-05-08T14:14:19.370Z,156663.00
2023-05-08T14:16:47.466Z,156766.84
2023-05-08T14:19:18.392Z,156698.50
2023-05-08T14:21:46.692Z,156157.31
2023-05-08T14:24:14.771Z,155887.00
2023-05-08T14:26:44.838Z,155538.19
2023-05-08T14:29:15.011Z,155388.81
2023-05-08T14:31:47.253Z,155299.78
2023-05-08T14:34:16.123Z,155270.97
2023-05-08T14:36:44.056Z,155289.31
2023-05-08T14:39:12.075Z,155210.69
2023-05-08T14:41:40.086Z,155236.91
2023-05-08T14:44:07.992Z,155142.59
2023-05-08T14:46:43.622Z,155177.97
2023-05-08T14:49:12.464Z,155108.59
2023-05-08T14:51:44.225Z,155095.50
2023-05-08T14:54:12.263Z,155181.91
2023-05-08T14:59:28.125Z,154985.53
2023-05-08T15:01:58.647Z,155054.91
2023-05-08T15:04:26.549Z,155069.34
2023-05-08T15:06:54.401Z,154946.31
2023-05-08T15:09:22.298Z,154820.69
2023-05-08T15:11:50.431Z,154765.75
2023-05-08T15:14:18.505Z,154710.84
2023-05-08T15:16:46.668Z,154625.84
2023-05-08T15:19:17.004Z,154496.47
2023-05-08T15:21:44.877Z,154402.34
2023-05-08T15:24:12.823Z,154355.28
2023-05-08T15:26:42.933Z,154340.97
2023-05-08T15:29:10.904Z,154279.56
2023-05-08T15:31:39.133Z,154252.13
2023-05-08T15:34:07.459Z,154224.69
2023-05-08T15:36:37.174Z,154190.72
2023-05-08T15:39:05.232Z,154182.94
2023-05-08T15:41:34.223Z,154169.84
2023-05-08T15:44:02.288Z,154147.66
2023-05-08T15:46:30.097Z,154104.59
2023-05-08T15:49:02.671Z,154026.25
2023-05-08T15:51:31.876Z,153932.28
2023-05-08T15:54:01.700Z,153850.13
2023-05-08T15:56:31.015Z,153610.16
2023-05-08T15:58:58.844Z,153452.47
2023-05-08T16:01:26.800Z,153408.13
2023-05-08T16:03:54.903Z,153349.56
2023-05-08T16:06:22.867Z,153335.22
2023-05-08T16:08:52.089Z,153290.97
2023-05-08T16:11:24.200Z,153236.22
2023-05-08T16:13:52.842Z,153223.19
2023-05-08T16:16:23.289Z,153194.53
2023-05-08T16:18:51.235Z,153185.47
2023-05-08T16:21:19.053Z,153249.22
2023-05-08T16:23:47.050Z,153203.66
2023-05-08T16:26:16.516Z,153191.94
2023-05-08T16:28:45.905Z,153203.66
2023-05-08T16:31:14.040Z,153177.66
2023-05-08T16:33:41.941Z,153237.53
2023-05-08T16:36:11.229Z,153189.31
2023-05-08T16:38:40.082Z,153225.81
2023-05-08T16:41:12.644Z,153303.94
2023-05-08T16:43:41.601Z,153306.56
2023-05-08T16:46:13.450Z,153289.66
2023-05-08T16:48:42.266Z,153298.72
2023-05-08T16:51:10.327Z,153345.66
2023-05-08T16:53:38.948Z,153392.53
2023-05-08T16:56:08.086Z,153399.06
2023-05-08T16:58:36.036Z,153405.56
2023-05-08T17:01:04.500Z,153391.22
2023-05-08T17:03:34.650Z,153366.47
2023-05-08T17:06:07.708Z,153382.09
2023-05-08T17:08:36.552Z,153357.34
2023-05-08T17:11:08.122Z,153371.69
2023-05-08T17:13:43.802Z,153333.94
2023-05-08T17:16:14.141Z,153309.16
2023-05-08T17:18:44.026Z,153296.19
2023-05-08T17:21:13.645Z,153320.91
2023-05-08T17:23:41.904Z,153288.34
2023-05-08T17:26:14.127Z,153298.72
2023-05-08T17:28:47.204Z,153301.34
2023-05-08T17:31:34.579Z,153307.84
2023-05-08T17:34:11.254Z,153354.72
2023-05-08T17:36:58.948Z,153293.56
2023-05-08T17:39:34.872Z,153339.13
2023-05-08T17:42:09.497Z,153340.44
2023-05-08T17:44:38.530Z,153345.66
2023-05-08T17:47:17.657Z,153366.47
2023-05-08T17:49:49.582Z,153345.66
2023-05-08T17:52:19.398Z,153287.06
2023-05-08T17:54:59.363Z,153303.94
2023-05-08T17:57:30.215Z,153324.81
2023-05-08T17:59:58.947Z,153287.06
2023-05-08T18:02:40.463Z,153313.06
2023-05-08T18:05:46.387Z,153346.97
2023-05-08T18:08:25.533Z,153311.75
2023-05-08T18:10:53.507Z,153309.16
2023-05-08T18:13:31.928Z,153303.94
2023-05-08T18:16:19.299Z,153300.03
2023-05-08T18:18:53.272Z,153288.34
2023-05-08T18:21:22.181Z,153290.97
2023-05-08T18:23:51.790Z,153298.72
2023-05-08T18:26:19.753Z,153283.09
2023-05-08T18:28:48.115Z,153273.97
2023-05-08T18:31:19.027Z,153290.97
2023-05-08T18:33:46.922Z,153270.06
2023-05-08T18:36:16.103Z,153257.03
2023-05-08T18:38:43.903Z,153244.00
2023-05-08T18:41:16.367Z,153228.41
2023-05-08T18:43:44.794Z,153194.53
2023-05-08T18:46:13.914Z,153242.69
2023-05-08T18:48:42.571Z,153238.84
2023-05-08T18:51:10.720Z,153219.28
2023-05-08T18:53:40.812Z,153195.84
2023-05-08T18:56:09.151Z,153184.16
2023-05-08T18:58:39.988Z,153189.31
2023-05-08T19:01:09.008Z,153164.63
2023-05-08T19:03:37.066Z,153121.69
2023-05-08T19:06:05.794Z,153124.28
2023-05-08T19:08:33.734Z,153100.84
2023-05-08T19:11:01.896Z,153087.81
2023-05-08T19:13:29.963Z,153040.97
2023-05-08T19:16:07.551Z,153064.41
2023-05-08T19:18:35.471Z,153074.78
2023-05-08T19:21:03.541Z,153098.22
2023-05-08T19:23:31.620Z,153106.03
2023-05-08T19:25:59.672Z,153099.53
2023-05-08T19:28:27.842Z,153072.22
2023-05-08T19:30:55.875Z,153046.19
2023-05-08T19:33:25.300Z,153050.09
2023-05-08T19:35:53.240Z,153054.00
2023-05-08T19:38:21.214Z,153080.00
2023-05-08T19:40:57.310Z,153078.69
2023-05-08T19:43:28.735Z,153090.41
2023-05-08T19:45:57.348Z,153082.59
2023-05-08T19:48:30.322Z,153080.00
2023-05-08T19:50:58.394Z,153082.59
2023-05-08T19:53:26.452Z,153100.84
2023-05-08T19:55:54.237Z,153103.44
2023-05-08T19:58:23.496Z,153155.50
2023-05-08T20:00:52.051Z,153160.72
2023-05-08T20:03:20.918Z,153152.88
2023-05-08T20:05:51.802Z,153152.88
2023-05-08T20:08:22.499Z,153126.88
2023-05-08T20:10:51.591Z,153121.69
2023-05-08T20:13:19.721Z,153119.06
2023-05-08T20:15:52.323Z,153126.88
2023-05-08T20:18:22.463Z,153128.19
2023-05-08T20:20:54.379Z,153133.34
2023-05-08T20:23:22.381Z,153113.84
2023-05-08T20:25:50.561Z,130215.78
2023-05-08T20:28:22.277Z,153100.84
2023-05-08T20:30:51.097Z,153096.94
2023-05-08T20:33:20.690Z,153067.03
2023-05-08T20:35:53.094Z,153056.59
2023-05-08T20:38:21.873Z,153046.19
2023-05-08T20:40:54.903Z,153063.13
2023-05-08T20:43:29.079Z,153033.16
2023-05-08T20:46:02.010Z,153026.66
2023-05-08T20:48:30.708Z,153017.56
2023-05-08T20:51:03.808Z,153017.56
2023-05-08T20:53:33.485Z,152992.78
2023-05-08T20:56:02.065Z,153008.41
2023-05-08T20:58:30.904Z,153014.97
2023-05-08T21:00:59.423Z,153033.16
2023-05-08T21:03:27.647Z,153033.16
2023-05-08T21:05:56.016Z,153026.66
2023-05-08T21:08:26.415Z,153022.75
2023-05-08T21:10:54.390Z,153046.19
2023-05-08T21:13:25.745Z,153051.38
2023-05-08T21:15:53.772Z,153059.19
2023-05-08T21:18:21.921Z,153046.19
2023-05-08T21:20:50.735Z,153025.34
2023-05-08T21:23:26.908Z,153009.72
2023-05-08T21:25:55.156Z,153043.56
2023-05-08T21:28:23.477Z,153035.75
2023-05-08T21:30:51.518Z,153017.56
2023-05-08T21:33:19.493Z,153043.56
2023-05-08T21:35:48.610Z,153025.34
2023-05-08T21:38:16.448Z,153026.66
2023-05-08T21:40:46.182Z,153017.56
2023-05-08T21:43:14.136Z,153017.56
2023-05-08T21:45:42.048Z,153033.16
2023-05-08T21:48:11.480Z,153033.16
2023-05-08T21:50:39.537Z,153025.34
2023-05-08T21:53:07.756Z,153012.38
2023-05-08T21:55:35.793Z,153025.34
2023-05-08T21:58:07.262Z,153009.72
2023-05-08T22:00:35.342Z,153005.81
2023-05-08T22:03:03.667Z,153011.06
2023-05-08T22:05:31.865Z,153014.97
2023-05-08T22:07:59.978Z,153018.88
2023-05-08T22:10:31.222Z,153024.03
2023-05-08T22:13:00.662Z,153005.81
2023-05-08T22:15:35.325Z,152958.97
2023-05-08T22:18:05.135Z,152965.44
2023-05-08T22:20:33.244Z,153008.41
2023-05-08T22:23:02.295Z,152992.78
2023-05-08T22:25:30.851Z,152992.78
2023-05-08T22:27:58.907Z,153005.81
2023-05-08T22:30:27.140Z,153008.41
2023-05-08T22:32:59.458Z,153005.81
2023-05-08T22:35:28.369Z,153017.56
2023-05-08T22:37:58.378Z,153022.75
2023-05-08T22:40:27.712Z,153001.91
2023-05-08T22:43:02.091Z,152999.31
2023-05-08T22:45:31.602Z,152931.66
2023-05-08T22:48:02.019Z,152926.44
2023-05-08T22:50:30.098Z,152918.63
2023-05-08T22:53:01.174Z,152875.72
2023-05-08T22:55:31.408Z,152848.44
2023-05-08T22:58:00.353Z,152798.97
2023-05-08T23:00:30.357Z,152784.72
2023-05-08T23:03:09.198Z,152770.41
2023-05-08T23:05:40.061Z,152754.78
2023-05-08T23:08:15.191Z,152719.69
2023-05-08T23:10:43.452Z,152732.72
2023-05-08T23:13:15.712Z,152740.50
2023-05-08T23:15:55.926Z,152694.94
2023-05-08T23:18:35.186Z,152680.66
2023-05-08T23:21:32.516Z,152670.25
2023-05-08T23:24:02.838Z,152662.47
2023-05-08T23:26:59.525Z,152663.75
2023-05-08T23:29:28.503Z,152653.34
2023-05-08T23:31:56.701Z,152655.94
2023-05-08T23:34:27.183Z,152674.16
2023-05-08T23:36:55.283Z,152662.47
2023-05-08T23:39:23.318Z,152675.47
2023-05-08T23:41:53.138Z,152674.16
2023-05-08T23:44:20.992Z,152667.66
2023-05-08T23:46:51.102Z,152666.38
2023-05-08T23:49:19.322Z,152694.94
2023-05-08T23:51:49.122Z,152670.25
2023-05-08T23:54:17.396Z,152650.75
2023-05-08T23:56:45.318Z,152635.13
2023-05-08T23:59:13.357Z,152663.75
